Back to Top

Language: 

My Weather Underground Personal Weather Station Historical Data with Graphs...

Delerius Weather Station Historical Data
Daily Summary for September 16, 2017 Units:  English    Metric   Both
« Previous Day
Next Day »
Daily Weekly Monthly Yearly Custom
  High: Low: Average:
Temperature: 61.0 °F 47.8 °F 52.9 °F
Dew Point: 49.7 °F 44.9 °F 47.3 °F
Humidity: 93 % 58 % 82 %
Wind Speed: 8.0 mph 0.0 mph 4.9 mph
Wind Gust: 18.0 mph - -
Wind:- - WSW
Pressure: 29.92 in 29.85 in -
Precipitation: 0.02 in    
Historical Graphs
 
 
Tabular Data for September 16, 2017
Time Temperature Dew Point Pressure Wind Wind Speed Wind Gust Humidity Rainfall Rate (Hourly) solar Conditions
00:02 50.2 °F 47.7 °F 29.91 in NW 4.0 mph 8.0 mph 91 % 0.00 in 0 W/m2
00:07 50.2 °F 47.7 °F 29.91 in NW 4.0 mph 8.0 mph 91 % 0.00 in 0 W/m2
00:12 50.2 °F 47.7 °F 29.91 in WNW 4.0 mph 7.0 mph 91 % 0.00 in 0 W/m2
00:17 50.4 °F 47.8 °F 29.91 in WNW 3.0 mph 7.0 mph 91 % 0.00 in 0 W/m2
00:27 50.4 °F 47.8 °F 29.90 in WNW 4.0 mph 8.0 mph 91 % 0.00 in 0 W/m2
00:32 50.4 °F 47.8 °F 29.90 in WNW 4.0 mph 7.0 mph 91 % 0.00 in 0 W/m2
00:37 50.5 °F 48.0 °F 29.90 in NW 4.0 mph 8.0 mph 91 % 0.00 in 0 W/m2
00:42 50.5 °F 48.0 °F 29.90 in NW 4.0 mph 8.0 mph 91 % 0.01 in 0 W/m2
00:47 50.5 °F 48.0 °F 29.90 in NW 4.0 mph 8.0 mph 91 % 0.01 in 0 W/m2
00:52 50.5 °F 48.0 °F 29.90 in WNW 4.0 mph 8.0 mph 91 % 0.01 in 0 W/m2
00:57 50.5 °F 48.0 °F 29.90 in WNW 4.0 mph 7.0 mph 91 % 0.01 in 0 W/m2
01:02 50.4 °F 47.8 °F 29.90 in WNW 4.0 mph 6.0 mph 91 % 0.01 in 0 W/m2
01:07 50.4 °F 47.8 °F 29.90 in WNW 4.0 mph 6.0 mph 91 % 0.01 in 0 W/m2
01:12 50.4 °F 47.8 °F 29.90 in WNW 4.0 mph 7.0 mph 91 % 0.01 in 0 W/m2
01:17 50.4 °F 47.8 °F 29.90 in WNW 4.0 mph 7.0 mph 91 % 0.01 in 0 W/m2
01:22 50.4 °F 48.1 °F 29.90 in WNW 4.0 mph 8.0 mph 92 % 0.01 in 0 W/m2
01:27 50.2 °F 47.9 °F 29.90 in WNW 5.0 mph 10.0 mph 92 % 0.01 in 0 W/m2
01:33 50.2 °F 47.9 °F 29.90 in WNW 5.0 mph 10.0 mph 92 % 0.01 in 0 W/m2
01:38 50.2 °F 47.9 °F 29.90 in WNW 5.0 mph 8.0 mph 92 % 0.01 in 0 W/m2
01:43 50.2 °F 47.9 °F 29.89 in WNW 5.0 mph 8.0 mph 92 % 0.00 in 0 W/m2
01:48 50.2 °F 47.7 °F 29.90 in WNW 4.0 mph 7.0 mph 91 % 0.00 in 0 W/m2
01:53 50.2 °F 47.9 °F 29.90 in WNW 4.0 mph 8.0 mph 92 % 0.00 in 0 W/m2
01:58 50.2 °F 47.9 °F 29.90 in WNW 5.0 mph 8.0 mph 92 % 0.00 in 0 W/m2
02:03 50.2 °F 47.9 °F 29.89 in WNW 4.0 mph 7.0 mph 92 % 0.00 in 0 W/m2
02:08 50.2 °F 47.9 °F 29.89 in WNW 5.0 mph 9.0 mph 92 % 0.00 in 0 W/m2
02:13 50.2 °F 47.9 °F 29.89 in WNW 5.0 mph 9.0 mph 92 % 0.00 in 0 W/m2
02:18 50.2 °F 47.9 °F 29.89 in WNW 5.0 mph 9.0 mph 92 % 0.00 in 0 W/m2
02:23 50.2 °F 47.9 °F 29.89 in WNW 4.0 mph 9.0 mph 92 % 0.00 in 0 W/m2
02:28 50.0 °F 47.8 °F 29.89 in WNW 3.0 mph 7.0 mph 92 % 0.00 in 0 W/m2
02:33 50.0 °F 47.8 °F 29.89 in WNW 4.0 mph 7.0 mph 92 % 0.00 in 0 W/m2
02:38 49.8 °F 47.6 °F 29.89 in WNW 4.0 mph 7.0 mph 92 % 0.00 in 0 W/m2
02:43 49.8 °F 47.6 °F 29.89 in WNW 3.0 mph 6.0 mph 92 % 0.00 in 0 W/m2
02:48 49.8 °F 47.6 °F 29.89 in WNW 3.0 mph 7.0 mph 92 % 0.00 in 0 W/m2
02:53 49.6 °F 47.4 °F 29.89 in NW 4.0 mph 8.0 mph 92 % 0.00 in 0 W/m2
02:58 49.6 °F 47.4 °F 29.89 in NW 5.0 mph 9.0 mph 92 % 0.00 in 0 W/m2
03:03 49.6 °F 47.4 °F 29.89 in NW 5.0 mph 9.0 mph 92 % 0.00 in 0 W/m2
03:08 49.6 °F 47.4 °F 29.89 in NW 4.0 mph 8.0 mph 92 % 0.00 in 0 W/m2
03:13 49.6 °F 47.4 °F 29.89 in NW 4.0 mph 9.0 mph 92 % 0.00 in 0 W/m2
03:18 49.5 °F 46.9 °F 29.89 in NW 5.0 mph 9.0 mph 91 % 0.00 in 0 W/m2
03:23 49.5 °F 46.9 °F 29.89 in NW 4.0 mph 8.0 mph 91 % 0.00 in 0 W/m2
03:28 49.5 °F 46.9 °F 29.89 in NW 4.0 mph 8.0 mph 91 % 0.00 in 0 W/m2
03:33 49.5 °F 46.9 °F 29.88 in NW 3.0 mph 8.0 mph 91 % 0.00 in 0 W/m2
03:38 49.5 °F 46.9 °F 29.88 in NW 4.0 mph 9.0 mph 91 % 0.00 in 0 W/m2
03:43 49.3 °F 46.8 °F 29.88 in NW 5.0 mph 9.0 mph 91 % 0.00 in 0 W/m2
03:48 49.3 °F 46.8 °F 29.88 in NW 5.0 mph 9.0 mph 91 % 0.00 in 0 W/m2
03:53 49.3 °F 46.8 °F 29.88 in NW 4.0 mph 8.0 mph 91 % 0.00 in 0 W/m2
03:58 49.3 °F 46.8 °F 29.88 in NW 5.0 mph 11.0 mph 91 % 0.00 in 0 W/m2
04:03 49.3 °F 46.8 °F 29.88 in WNW 5.0 mph 11.0 mph 91 % 0.00 in 0 W/m2
04:08 49.1 °F 46.3 °F 29.88 in NW 5.0 mph 9.0 mph 90 % 0.00 in 0 W/m2
04:13 49.1 °F 46.3 °F 29.88 in NW 5.0 mph 8.0 mph 90 % 0.00 in 0 W/m2
04:19 49.1 °F 46.3 °F 29.88 in NW 5.0 mph 11.0 mph 90 % 0.00 in 0 W/m2
04:21 49.1 °F 46.3 °F 29.88 in NW 5.0 mph 11.0 mph 90 % 0.00 in 0 W/m2
04:26 49.1 °F 46.3 °F 29.88 in WNW 4.0 mph 7.0 mph 90 % 0.00 in 0 W/m2
04:31 48.9 °F 46.1 °F 29.88 in WNW 5.0 mph 7.0 mph 90 % 0.00 in 0 W/m2
04:36 48.9 °F 46.1 °F 29.88 in WNW 5.0 mph 8.0 mph 90 % 0.00 in 0 W/m2
04:41 49.1 °F 46.3 °F 29.88 in WNW 5.0 mph 11.0 mph 90 % 0.00 in 0 W/m2
04:46 49.1 °F 46.3 °F 29.88 in WNW 4.0 mph 11.0 mph 90 % 0.00 in 0 W/m2
04:51 49.1 °F 46.3 °F 29.88 in NW 5.0 mph 9.0 mph 90 % 0.00 in 0 W/m2
05:01 49.3 °F 46.5 °F 29.87 in NW 6.0 mph 10.0 mph 90 % 0.00 in 0 W/m2
05:06 49.3 °F 46.5 °F 29.88 in NW 5.0 mph 10.0 mph 90 % 0.00 in 0 W/m2
05:11 49.3 °F 46.5 °F 29.87 in NW 5.0 mph 10.0 mph 90 % 0.00 in 0 W/m2
05:16 49.5 °F 46.6 °F 29.87 in NW 6.0 mph 10.0 mph 90 % 0.00 in 0 W/m2
05:21 49.5 °F 46.4 °F 29.87 in NW 6.0 mph 10.0 mph 89 % 0.00 in 0 W/m2
05:26 49.5 °F 46.4 °F 29.87 in NW 6.0 mph 12.0 mph 89 % 0.00 in 0 W/m2
05:31 49.5 °F 46.4 °F 29.87 in NW 6.0 mph 12.0 mph 89 % 0.00 in 0 W/m2
05:36 49.5 °F 46.4 °F 29.87 in NW 6.0 mph 11.0 mph 89 % 0.00 in 0 W/m2
05:41 49.5 °F 46.4 °F 29.87 in NW 6.0 mph 12.0 mph 89 % 0.00 in 0 W/m2
05:46 49.6 °F 46.5 °F 29.86 in NW 6.0 mph 12.0 mph 89 % 0.00 in 0 W/m2
05:51 49.6 °F 46.5 °F 29.86 in NW 6.0 mph 11.0 mph 89 % 0.00 in 0 W/m2
05:56 49.6 °F 46.5 °F 29.86 in NW 6.0 mph 10.0 mph 89 % 0.00 in 0 W/m2
06:06 49.6 °F 46.5 °F 29.87 in NW 5.0 mph 10.0 mph 89 % 0.00 in 0 W/m2
06:11 49.6 °F 46.5 °F 29.87 in NW 4.0 mph 10.0 mph 89 % 0.00 in 0 W/m2
06:16 49.6 °F 46.5 °F 29.87 in NW 5.0 mph 9.0 mph 89 % 0.00 in 0 W/m2
06:21 49.6 °F 46.5 °F 29.87 in NW 6.0 mph 10.0 mph 89 % 0.00 in 0 W/m2
06:27 49.6 °F 46.5 °F 29.87 in WNW 5.0 mph 10.0 mph 89 % 0.00 in 0 W/m2
06:32 49.6 °F 46.5 °F 29.87 in NW 4.0 mph 10.0 mph 89 % 0.00 in 0 W/m2
06:37 49.6 °F 46.5 °F 29.88 in NW 3.0 mph 9.0 mph 89 % 0.00 in 0 W/m2
06:42 49.6 °F 46.8 °F 29.87 in NW 5.0 mph 15.0 mph 90 % 0.01 in 0 W/m2
06:47 49.6 °F 46.8 °F 29.88 in NW 7.0 mph 15.0 mph 90 % 0.01 in 0 W/m2
06:52 49.6 °F 46.8 °F 29.88 in NW 6.0 mph 11.0 mph 90 % 0.01 in 0 W/m2
06:57 49.6 °F 46.8 °F 29.88 in NW 6.0 mph 10.0 mph 90 % 0.01 in 5 W/m2
07:02 49.6 °F 46.8 °F 29.88 in NW 6.0 mph 9.0 mph 90 % 0.01 in 5 W/m2
07:07 49.6 °F 46.8 °F 29.88 in NW 5.0 mph 9.0 mph 90 % 0.01 in 5 W/m2
07:12 49.6 °F 46.8 °F 29.88 in NW 6.0 mph 12.0 mph 90 % 0.01 in 7 W/m2
07:17 49.6 °F 46.8 °F 29.88 in NW 6.0 mph 12.0 mph 90 % 0.01 in 7 W/m2
07:22 49.6 °F 46.8 °F 29.88 in NW 5.0 mph 13.0 mph 90 % 0.01 in 9 W/m2
07:27 49.6 °F 47.1 °F 29.88 in NW 4.0 mph 13.0 mph 91 % 0.01 in 11 W/m2
07:32 49.8 °F 47.3 °F 29.88 in NW 4.0 mph 11.0 mph 91 % 0.01 in 18 W/m2
07:37 49.8 °F 47.0 °F 29.88 in NW 5.0 mph 10.0 mph 90 % 0.01 in 21 W/m2
07:42 49.8 °F 47.3 °F 29.88 in NW 4.0 mph 10.0 mph 91 % 0.00 in 21 W/m2
07:47 49.8 °F 47.3 °F 29.88 in NW 4.0 mph 10.0 mph 91 % 0.00 in 25 W/m2
07:52 50.0 °F 47.2 °F 29.88 in NNW 5.0 mph 11.0 mph 90 % 0.00 in 40 W/m2
07:57 50.2 °F 47.4 °F 29.88 in NW 5.0 mph 11.0 mph 90 % 0.00 in 42 W/m2
08:02 50.2 °F 47.4 °F 29.88 in NNW 5.0 mph 11.0 mph 90 % 0.00 in 49 W/m2
08:07 50.4 °F 47.5 °F 29.88 in NNW 6.0 mph 14.0 mph 90 % 0.00 in 35 W/m2
08:12 50.4 °F 47.2 °F 29.89 in NNW 6.0 mph 14.0 mph 89 % 0.00 in 33 W/m2
08:17 50.4 °F 47.2 °F 29.89 in NNW 5.0 mph 11.0 mph 89 % 0.00 in 28 W/m2
08:22 50.4 °F 47.2 °F 29.89 in NNW 5.0 mph 10.0 mph 89 % 0.00 in 33 W/m2
08:27 50.4 °F 47.2 °F 29.89 in NNW 5.0 mph 11.0 mph 89 % 0.00 in 47 W/m2
08:32 50.5 °F 47.4 °F 29.89 in NNW 6.0 mph 13.0 mph 89 % 0.00 in 67 W/m2
08:37 50.5 °F 47.4 °F 29.89 in NNW 7.0 mph 13.0 mph 89 % 0.00 in 79 W/m2
08:42 50.7 °F 47.3 °F 29.89 in NNW 7.0 mph 13.0 mph 88 % 0.00 in 91 W/m2
08:47 50.7 °F 47.3 °F 29.89 in NNW 6.0 mph 15.0 mph 88 % 0.00 in 97 W/m2
08:52 50.9 °F 47.5 °F 29.89 in NNW 6.0 mph 15.0 mph 88 % 0.00 in 127 W/m2
08:57 51.1 °F 47.6 °F 29.89 in NNW 6.0 mph 12.0 mph 88 % 0.00 in 114 W/m2
09:02 51.3 °F 47.5 °F 29.90 in NNW 6.0 mph 12.0 mph 87 % 0.00 in 139 W/m2
09:07 51.4 °F 47.7 °F 29.90 in NNW 6.0 mph 11.0 mph 87 % 0.00 in 121 W/m2
09:12 51.4 °F 47.4 °F 29.90 in NNW 6.0 mph 12.0 mph 86 % 0.00 in 88 W/m2
09:17 51.6 °F 47.6 °F 29.90 in NNW 6.0 mph 13.0 mph 86 % 0.00 in 123 W/m2
09:22 51.6 °F 47.6 °F 29.90 in NNW 6.0 mph 13.0 mph 86 % 0.00 in 105 W/m2
09:28 51.6 °F 47.6 °F 29.90 in NNW 7.0 mph 13.0 mph 86 % 0.00 in 84 W/m2
09:33 51.6 °F 47.6 °F 29.90 in NNW 7.0 mph 12.0 mph 86 % 0.00 in 91 W/m2
09:38 51.6 °F 47.6 °F 29.90 in NNW 5.0 mph 11.0 mph 86 % 0.00 in 116 W/m2
09:43 51.8 °F 47.4 °F 29.90 in NNW 5.0 mph 11.0 mph 85 % 0.00 in 243 W/m2
09:48 52.2 °F 48.1 °F 29.90 in NNW 5.0 mph 11.0 mph 86 % 0.00 in 221 W/m2
09:53 52.5 °F 48.1 °F 29.90 in NNW 5.0 mph 11.0 mph 85 % 0.00 in 499 W/m2
09:58 53.2 °F 48.8 °F 29.90 in NNW 5.0 mph 11.0 mph 85 % 0.00 in 615 W/m2
10:03 54.0 °F 49.2 °F 29.90 in NNW 5.0 mph 10.0 mph 84 % 0.00 in 276 W/m2
10:08 54.3 °F 49.3 °F 29.90 in NNW 6.0 mph 12.0 mph 83 % 0.00 in 202 W/m2
10:13 54.5 °F 49.1 °F 29.90 in NNW 6.0 mph 12.0 mph 82 % 0.00 in 163 W/m2
10:18 54.3 °F 48.6 °F 29.90 in NNW 6.0 mph 12.0 mph 81 % 0.00 in 162 W/m2
10:23 54.3 °F 48.6 °F 29.90 in NNW 7.0 mph 12.0 mph 81 % 0.00 in 329 W/m2
10:28 54.5 °F 49.1 °F 29.90 in NNW 6.0 mph 11.0 mph 82 % 0.00 in 330 W/m2
10:33 54.7 °F 49.0 °F 29.90 in NNW 6.0 mph 11.0 mph 81 % 0.00 in 311 W/m2
10:37 54.7 °F 49.0 °F 29.90 in North 5.0 mph 10.0 mph 81 % 0.00 in 575 W/m2
10:42 55.0 °F 48.6 °F 29.90 in NNE 6.0 mph 15.0 mph 79 % 0.00 in 752 W/m2
10:47 55.8 °F 49.7 °F 29.90 in North 7.0 mph 15.0 mph 80 % 0.00 in 582 W/m2
10:52 56.1 °F 49.0 °F 29.90 in North 7.0 mph 12.0 mph 77 % 0.00 in 782 W/m2
10:57 56.8 °F 49.7 °F 29.90 in North 7.0 mph 13.0 mph 77 % 0.00 in 882 W/m2
11:02 57.2 °F 49.0 °F 29.90 in NNW 7.0 mph 13.0 mph 74 % 0.00 in 206 W/m2
11:07 56.8 °F 48.3 °F 29.90 in NNW 7.0 mph 13.0 mph 73 % 0.00 in 253 W/m2
11:12 56.7 °F 48.8 °F 29.90 in NNW 6.0 mph 13.0 mph 75 % 0.00 in 278 W/m2
11:17 56.5 °F 48.6 °F 29.89 in North 5.0 mph 10.0 mph 75 % 0.00 in 239 W/m2
11:22 55.9 °F 48.5 °F 29.89 in NNE 5.0 mph 12.0 mph 76 % 0.00 in 283 W/m2
11:27 55.9 °F 48.5 °F 29.90 in NNE 6.0 mph 12.0 mph 76 % 0.00 in 239 W/m2
11:32 55.6 °F 47.8 °F 29.89 in NNE 6.0 mph 13.0 mph 75 % 0.00 in 209 W/m2
11:37 55.6 °F 48.1 °F 29.90 in NNE 6.0 mph 13.0 mph 76 % 0.00 in 171 W/m2
11:42 55.4 °F 48.0 °F 29.89 in North 7.0 mph 13.0 mph 76 % 0.00 in 216 W/m2
11:47 55.4 °F 48.0 °F 29.89 in NNE 7.0 mph 13.0 mph 76 % 0.00 in 299 W/m2
11:52 55.2 °F 47.8 °F 29.89 in NNE 7.0 mph 13.0 mph 76 % 0.00 in 311 W/m2
11:58 55.2 °F 47.8 °F 29.89 in NNE 7.0 mph 16.0 mph 76 % 0.00 in 297 W/m2
12:03 55.4 °F 48.0 °F 29.89 in North 7.0 mph 16.0 mph 76 % 0.00 in 294 W/m2
12:08 55.6 °F 48.1 °F 29.89 in North 6.0 mph 11.0 mph 76 % 0.00 in 327 W/m2
12:13 55.8 °F 48.0 °F 29.89 in North 6.0 mph 12.0 mph 75 % 0.00 in 325 W/m2
12:18 56.1 °F 48.7 °F 29.89 in North 6.0 mph 12.0 mph 76 % 0.00 in 295 W/m2
12:23 56.1 °F 48.3 °F 29.89 in NNE 6.0 mph 13.0 mph 75 % 0.00 in 304 W/m2
12:28 56.5 °F 48.3 °F 29.89 in North 7.0 mph 13.0 mph 74 % 0.00 in 355 W/m2
12:33 56.7 °F 48.5 °F 29.89 in NNW 7.0 mph 12.0 mph 74 % 0.00 in 563 W/m2
12:38 57.0 °F 48.4 °F 29.89 in North 6.0 mph 11.0 mph 73 % 0.00 in 605 W/m2
12:43 57.4 °F 48.4 °F 29.88 in North 7.0 mph 12.0 mph 72 % 0.00 in 633 W/m2
12:48 57.9 °F 48.9 °F 29.88 in North 7.0 mph 12.0 mph 72 % 0.00 in 895 W/m2
12:53 58.3 °F 48.9 °F 29.88 in NNE 5.0 mph 11.0 mph 71 % 0.00 in 274 W/m2
12:58 58.6 °F 48.5 °F 29.88 in North 5.0 mph 11.0 mph 69 % 0.00 in 218 W/m2
13:03 58.3 °F 47.8 °F 29.88 in North 6.0 mph 11.0 mph 68 % 0.00 in 195 W/m2
13:08 57.6 °F 47.5 °F 29.88 in North 7.0 mph 14.0 mph 69 % 0.00 in 213 W/m2
13:13 57.0 °F 46.6 °F 29.88 in North 8.0 mph 14.0 mph 68 % 0.00 in 309 W/m2
13:18 56.8 °F 47.2 °F 29.88 in NNE 7.0 mph 12.0 mph 70 % 0.00 in 564 W/m2
13:23 56.8 °F 47.2 °F 29.88 in NNE 7.0 mph 11.0 mph 70 % 0.00 in 441 W/m2
13:28 57.2 °F 47.1 °F 29.88 in NNE 7.0 mph 13.0 mph 69 % 0.00 in 380 W/m2
13:33 57.2 °F 47.1 °F 29.87 in NNE 8.0 mph 13.0 mph 69 % 0.00 in 359 W/m2
13:38 57.4 °F 47.7 °F 29.87 in North 7.0 mph 13.0 mph 70 % 0.00 in 346 W/m2
13:43 57.6 °F 47.5 °F 29.87 in North 5.0 mph 13.0 mph 69 % 0.00 in 420 W/m2
13:48 57.9 °F 47.0 °F 29.87 in NNE 5.0 mph 13.0 mph 67 % 0.00 in 485 W/m2
13:53 57.7 °F 46.0 °F 29.87 in NNE 7.0 mph 13.0 mph 65 % 0.00 in 341 W/m2
13:58 57.7 °F 46.5 °F 29.87 in NNE 7.0 mph 13.0 mph 66 % 0.00 in 454 W/m2
14:03 58.1 °F 46.8 °F 29.87 in North 6.0 mph 12.0 mph 66 % 0.00 in 415 W/m2
14:08 58.3 °F 46.6 °F 29.87 in North 7.0 mph 12.0 mph 65 % 0.00 in 316 W/m2
14:13 58.8 °F 47.1 °F 29.87 in NNW 7.0 mph 11.0 mph 65 % 0.00 in 752 W/m2
14:18 59.4 °F 46.3 °F 29.86 in NNW 7.0 mph 12.0 mph 62 % 0.00 in 292 W/m2
14:20 59.5 °F 46.1 °F 29.86 in NNW 8.0 mph 15.0 mph 61 % 0.00 in 292 W/m2
14:25 59.5 °F 46.5 °F 29.86 in NNW 7.0 mph 15.0 mph 62 % 0.00 in 309 W/m2
14:31 59.4 °F 46.3 °F 29.86 in NNW 6.0 mph 12.0 mph 62 % 0.00 in 202 W/m2
14:36 59.2 °F 46.2 °F 29.86 in NNW 6.0 mph 12.0 mph 62 % 0.00 in 160 W/m2
14:41 59.2 °F 46.6 °F 29.86 in NNW 6.0 mph 12.0 mph 63 % 0.00 in 547 W/m2
14:46 59.5 °F 46.5 °F 29.86 in NNW 6.0 mph 12.0 mph 62 % 0.00 in 715 W/m2
14:51 60.1 °F 46.6 °F 29.86 in NNW 6.0 mph 11.0 mph 61 % 0.00 in 733 W/m2
14:56 60.4 °F 46.5 °F 29.86 in NNW 6.0 mph 11.0 mph 60 % 0.00 in 728 W/m2
15:01 61.0 °F 47.0 °F 29.86 in NNW 6.0 mph 12.0 mph 60 % 0.00 in 113 W/m2
15:06 60.3 °F 45.4 °F 29.86 in North 6.0 mph 11.0 mph 58 % 0.00 in 134 W/m2
15:11 59.7 °F 44.9 °F 29.86 in NNE 6.0 mph 11.0 mph 58 % 0.00 in 633 W/m2
15:16 59.7 °F 44.9 °F 29.86 in North 6.0 mph 12.0 mph 58 % 0.00 in 251 W/m2
15:21 60.1 °F 45.7 °F 29.86 in North 5.0 mph 12.0 mph 59 % 0.00 in 279 W/m2
15:26 60.3 °F 46.3 °F 29.86 in North 5.0 mph 11.0 mph 60 % 0.00 in 733 W/m2
15:31 60.3 °F 45.4 °F 29.86 in North 6.0 mph 11.0 mph 58 % 0.00 in 188 W/m2
15:36 59.5 °F 45.2 °F 29.86 in NNE 7.0 mph 12.0 mph 59 % 0.00 in 162 W/m2
15:41 59.0 °F 45.6 °F 29.86 in NNE 7.0 mph 12.0 mph 61 % 0.00 in 142 W/m2
15:46 58.8 °F 46.2 °F 29.86 in NNE 5.0 mph 12.0 mph 63 % 0.00 in 563 W/m2
15:51 58.8 °F 47.1 °F 29.86 in NE 5.0 mph 12.0 mph 65 % 0.00 in 529 W/m2
15:56 59.2 °F 47.0 °F 29.85 in NNE 6.0 mph 12.0 mph 64 % 0.00 in 591 W/m2
16:01 59.5 °F 47.3 °F 29.86 in NNE 6.0 mph 11.0 mph 64 % 0.00 in 615 W/m2
16:06 59.9 °F 47.7 °F 29.85 in North 6.0 mph 12.0 mph 64 % 0.00 in 200 W/m2
16:11 59.9 °F 46.8 °F 29.86 in North 6.0 mph 12.0 mph 62 % 0.00 in 160 W/m2
16:16 59.5 °F 46.1 °F 29.85 in NNE 6.0 mph 12.0 mph 61 % 0.00 in 130 W/m2
16:21 59.0 °F 46.4 °F 29.85 in NNE 7.0 mph 13.0 mph 63 % 0.00 in 134 W/m2
16:26 58.5 °F 47.1 °F 29.86 in NNE 7.0 mph 13.0 mph 66 % 0.00 in 149 W/m2
16:31 57.9 °F 47.4 °F 29.86 in NE 6.0 mph 12.0 mph 68 % 0.00 in 123 W/m2
16:36 57.6 °F 47.1 °F 29.86 in NNE 7.0 mph 11.0 mph 68 % 0.00 in 105 W/m2
16:41 57.4 °F 47.3 °F 29.86 in NNE 6.0 mph 10.0 mph 69 % 0.00 in 107 W/m2
16:46 57.2 °F 47.5 °F 29.86 in NNE 6.0 mph 10.0 mph 70 % 0.00 in 102 W/m2
16:51 57.0 °F 47.7 °F 29.85 in NE 6.0 mph 11.0 mph 71 % 0.00 in 373 W/m2
16:56 57.2 °F 48.3 °F 29.86 in NE 6.0 mph 12.0 mph 72 % 0.00 in 255 W/m2
17:01 57.4 °F 48.4 °F 29.86 in NE 5.0 mph 12.0 mph 72 % 0.00 in 83 W/m2
17:06 57.6 °F 48.2 °F 29.86 in NNE 3.0 mph 11.0 mph 71 % 0.00 in 151 W/m2
17:11 57.6 °F 48.2 °F 29.86 in NNE 3.0 mph 11.0 mph 71 % 0.00 in 121 W/m2
17:16 57.6 °F 48.2 °F 29.86 in North 4.0 mph 10.0 mph 71 % 0.00 in 102 W/m2
17:21 57.6 °F 47.5 °F 29.86 in NNE 6.0 mph 10.0 mph 69 % 0.00 in 172 W/m2
17:26 57.7 °F 47.6 °F 29.86 in North 6.0 mph 12.0 mph 69 % 0.00 in 339 W/m2
17:31 58.1 °F 48.0 °F 29.85 in North 6.0 mph 12.0 mph 69 % 0.00 in 214 W/m2
17:36 58.5 °F 48.3 °F 29.86 in NNW 5.0 mph 11.0 mph 69 % 0.00 in 121 W/m2
17:41 58.5 °F 47.9 °F 29.86 in NNW 6.0 mph 13.0 mph 68 % 0.00 in 132 W/m2
17:46 58.5 °F 48.3 °F 29.86 in NNW 6.0 mph 13.0 mph 69 % 0.00 in 135 W/m2
17:51 58.3 °F 48.5 °F 29.86 in NNW 5.0 mph 13.0 mph 70 % 0.00 in 174 W/m2
17:56 57.9 °F 48.6 °F 29.87 in North 5.0 mph 13.0 mph 71 % 0.00 in 207 W/m2
18:01 57.6 °F 47.8 °F 29.87 in NNE 6.0 mph 13.0 mph 70 % 0.00 in 121 W/m2
18:06 57.0 °F 47.7 °F 29.87 in NNE 7.0 mph 18.0 mph 71 % 0.00 in 109 W/m2
18:11 56.7 °F 48.1 °F 29.87 in NNE 7.0 mph 18.0 mph 73 % 0.00 in 113 W/m2
18:17 56.1 °F 47.6 °F 29.87 in NNE 6.0 mph 12.0 mph 73 % 0.00 in 74 W/m2
18:22 55.8 °F 48.0 °F 29.87 in North 7.0 mph 12.0 mph 75 % 0.00 in 70 W/m2
18:27 55.6 °F 47.8 °F 29.87 in NNE 6.0 mph 12.0 mph 75 % 0.00 in 69 W/m2
18:32 55.4 °F 48.0 °F 29.87 in North 5.0 mph 11.0 mph 76 % 0.00 in 58 W/m2
18:37 55.2 °F 48.1 °F 29.87 in NNE 6.0 mph 11.0 mph 77 % 0.00 in 49 W/m2
18:42 54.9 °F 47.8 °F 29.87 in NNE 7.0 mph 15.0 mph 77 % 0.00 in 39 W/m2
18:47 54.7 °F 47.6 °F 29.88 in North 8.0 mph 15.0 mph 77 % 0.00 in 30 W/m2
18:52 54.3 °F 47.6 °F 29.88 in North 7.0 mph 13.0 mph 78 % 0.00 in 23 W/m2
18:57 54.1 °F 47.8 °F 29.88 in North 6.0 mph 12.0 mph 79 % 0.00 in 18 W/m2
19:02 54.0 °F 47.6 °F 29.88 in North 6.0 mph 12.0 mph 79 % 0.00 in 12 W/m2
19:07 54.0 °F 47.9 °F 29.88 in North 7.0 mph 10.0 mph 80 % 0.00 in 9 W/m2
19:12 53.8 °F 47.8 °F 29.89 in North 5.0 mph 10.0 mph 80 % 0.00 in 7 W/m2
19:17 53.6 °F 47.9 °F 29.89 in North 4.0 mph 9.0 mph 81 % 0.00 in 5 W/m2
19:22 53.4 °F 47.7 °F 29.89 in North 3.0 mph 9.0 mph 81 % 0.00 in 0 W/m2
19:27 53.2 °F 47.9 °F 29.89 in North 4.0 mph 10.0 mph 82 % 0.00 in 0 W/m2
19:32 53.1 °F 47.7 °F 29.89 in North 5.0 mph 10.0 mph 82 % 0.00 in 0 W/m2
19:37 53.1 °F 47.7 °F 29.89 in North 5.0 mph 10.0 mph 82 % 0.00 in 0 W/m2
19:42 52.9 °F 47.9 °F 29.89 in North 6.0 mph 11.0 mph 83 % 0.00 in 0 W/m2
19:47 52.9 °F 47.9 °F 29.89 in NNW 6.0 mph 11.0 mph 83 % 0.00 in 0 W/m2
19:57 52.5 °F 47.8 °F 29.90 in North 4.0 mph 9.0 mph 84 % 0.00 in 0 W/m2
20:02 52.5 °F 47.8 °F 29.90 in NNW 4.0 mph 9.0 mph 84 % 0.00 in 0 W/m2
20:07 52.3 °F 47.6 °F 29.90 in NNW 4.0 mph 8.0 mph 84 % 0.00 in 0 W/m2
20:12 52.2 °F 47.5 °F 29.90 in NNW 4.0 mph 9.0 mph 84 % 0.00 in 0 W/m2
20:17 52.2 °F 47.5 °F 29.90 in NNW 3.0 mph 9.0 mph 84 % 0.00 in 0 W/m2
20:22 52.0 °F 47.6 °F 29.90 in NNW 3.0 mph 8.0 mph 85 % 0.00 in 0 W/m2
20:27 51.8 °F 47.4 °F 29.90 in NNW 3.0 mph 7.0 mph 85 % 0.00 in 0 W/m2
20:37 51.4 °F 47.1 °F 29.91 in NNW 3.0 mph 7.0 mph 85 % 0.00 in 0 W/m2
20:42 51.4 °F 47.4 °F 29.91 in NNW 2.0 mph 9.0 mph 86 % 0.00 in 0 W/m2
20:47 51.3 °F 47.2 °F 29.91 in North 3.0 mph 9.0 mph 86 % 0.00 in 0 W/m2
20:52 51.1 °F 47.0 °F 29.91 in NNW 3.0 mph 8.0 mph 86 % 0.00 in 0 W/m2
20:57 51.1 °F 47.0 °F 29.91 in NW 2.0 mph 6.0 mph 86 % 0.00 in 0 W/m2
21:03 50.7 °F 46.7 °F 29.91 in NW 1.0 mph 3.0 mph 86 % 0.00 in 0 W/m2
21:08 50.5 °F 46.8 °F 29.91 in NW 1.0 mph 5.0 mph 87 % 0.00 in 0 W/m2
21:13 50.4 °F 46.6 °F 29.91 in NW 2.0 mph 5.0 mph 87 % 0.00 in 0 W/m2
21:18 50.2 °F 46.8 °F 29.91 in NW 2.0 mph 5.0 mph 88 % 0.00 in 0 W/m2
21:23 50.0 °F 46.6 °F 29.91 in NW 2.0 mph 5.0 mph 88 % 0.00 in 0 W/m2
21:28 49.8 °F 46.4 °F 29.91 in NW 2.0 mph 6.0 mph 88 % 0.00 in 0 W/m2
21:33 49.6 °F 46.2 °F 29.91 in NW 2.0 mph 6.0 mph 88 % 0.00 in 0 W/m2
21:38 49.5 °F 46.4 °F 29.91 in NW 2.0 mph 5.0 mph 89 % 0.00 in 0 W/m2
21:43 49.3 °F 46.2 °F 29.91 in NW 2.0 mph 5.0 mph 89 % 0.00 in 0 W/m2
21:48 49.3 °F 46.2 °F 29.91 in NW 2.0 mph 5.0 mph 89 % 0.00 in 0 W/m2
21:53 48.9 °F 46.1 °F 29.91 in NW 1.0 mph 4.0 mph 90 % 0.00 in 0 W/m2
21:58 48.9 °F 46.1 °F 29.91 in NW 1.0 mph 5.0 mph 90 % 0.00 in 0 W/m2
22:03 48.7 °F 45.9 °F 29.91 in NW 1.0 mph 6.0 mph 90 % 0.00 in 0 W/m2
22:08 48.7 °F 46.2 °F 29.91 in NW 3.0 mph 6.0 mph 91 % 0.00 in 0 W/m2
22:13 48.7 °F 46.2 °F 29.91 in NW 3.0 mph 6.0 mph 91 % 0.00 in 0 W/m2
22:18 48.6 °F 46.1 °F 29.91 in WNW 2.0 mph 5.0 mph 91 % 0.00 in 0 W/m2
22:23 48.6 °F 46.1 °F 29.91 in WNW 2.0 mph 5.0 mph 91 % 0.00 in 0 W/m2
22:28 48.6 °F 46.1 °F 29.91 in WNW 2.0 mph 6.0 mph 91 % 0.00 in 0 W/m2
22:33 48.6 °F 46.1 °F 29.91 in NW 2.0 mph 8.0 mph 91 % 0.00 in 0 W/m2
22:38 48.4 °F 46.2 °F 29.91 in WNW 2.0 mph 8.0 mph 92 % 0.00 in 0 W/m2
22:43 48.4 °F 46.2 °F 29.91 in WNW 2.0 mph 5.0 mph 92 % 0.00 in 0 W/m2
22:48 48.4 °F 46.2 °F 29.91 in WNW 2.0 mph 5.0 mph 92 % 0.00 in 0 W/m2
22:53 48.4 °F 46.2 °F 29.91 in WNW 1.0 mph 5.0 mph 92 % 0.00 in 0 W/m2
22:58 48.4 °F 46.2 °F 29.92 in NW 2.0 mph 6.0 mph 92 % 0.00 in 0 W/m2
23:03 48.4 °F 46.2 °F 29.92 in NW 2.0 mph 6.0 mph 92 % 0.00 in 0 W/m2
23:08 48.4 °F 46.2 °F 29.91 in NW 1.0 mph 5.0 mph 92 % 0.00 in 0 W/m2
23:13 48.4 °F 46.2 °F 29.91 in Calm   4.0 mph 92 % 0.00 in 0 W/m2
23:18 48.0 °F 45.8 °F 29.92 in Calm   4.0 mph 92 % 0.00 in 0 W/m2
23:23 48.0 °F 45.8 °F 29.92 in Calm   5.0 mph 92 % 0.00 in 0 W/m2
23:28 47.8 °F 45.6 °F 29.92 in NW 1.0 mph 5.0 mph 92 % 0.00 in 0 W/m2
23:34 47.8 °F 45.6 °F 29.92 in Calm   2.0 mph 92 % 0.00 in 0 W/m2
23:38 47.8 °F 45.6 °F 29.92 in NW 1.0 mph 4.0 mph 92 % 0.00 in 0 W/m2
23:43 47.8 °F 45.9 °F 29.92 in NW 1.0 mph 4.0 mph 93 % 0.00 in 0 W/m2
23:48 47.8 °F 45.9 °F 29.92 in Calm   4.0 mph 93 % 0.00 in 0 W/m2
23:54 47.8 °F 45.9 °F 29.92 in Calm   2.0 mph 93 % 0.00 in 0 W/m2
23:59 47.8 °F 45.9 °F 29.92 in Calm   2.0 mph 93 % 0.00 in 0 W/m2
Delerius-Weather
Compliments of Weather Underground - 2.25 mb

Data updates at regular intervals.